createdAt,value
2017-10-06T00:00:57.373Z,816.81
2017-10-06T00:01:57.985Z,816.90
2017-10-06T00:02:58.594Z,816.90
2017-10-06T00:03:59.206Z,816.82
2017-10-06T00:04:59.818Z,816.85
2017-10-06T00:06:00.579Z,816.86
2017-10-06T00:07:01.224Z,816.89
2017-10-06T00:08:01.838Z,816.88
2017-10-06T00:09:02.481Z,816.81
2017-10-06T00:10:03.094Z,816.84
2017-10-06T00:11:03.854Z,816.83
2017-10-06T00:12:04.465Z,816.66
2017-10-06T00:13:05.083Z,816.69
2017-10-06T00:14:05.697Z,816.67
2017-10-06T00:15:06.304Z,816.72
2017-10-06T00:16:07.103Z,816.64
2017-10-06T00:17:07.712Z,816.68
2017-10-06T00:18:08.356Z,816.69
2017-10-06T00:19:08.966Z,816.70
2017-10-06T00:20:09.584Z,816.72
2017-10-06T00:21:10.344Z,816.64
2017-10-06T00:22:10.986Z,816.71
2017-10-06T00:23:11.599Z,816.68
2017-10-06T00:24:12.210Z,816.65
2017-10-06T00:25:12.819Z,816.63
2017-10-06T00:26:13.613Z,816.63
2017-10-06T00:27:14.225Z,816.51
2017-10-06T00:28:14.834Z,816.57
2017-10-06T00:29:15.476Z,816.52
2017-10-06T00:30:16.089Z,816.51
2017-10-06T00:31:16.849Z,816.55
2017-10-06T00:32:17.463Z,816.52
2017-10-06T00:33:18.072Z,816.61
2017-10-06T00:34:18.723Z,816.62
2017-10-06T00:35:19.330Z,816.70
2017-10-06T00:36:20.092Z,816.67
2017-10-06T00:37:20.705Z,816.68
2017-10-06T00:38:21.317Z,816.54
2017-10-06T00:39:21.927Z,816.54
2017-10-06T00:40:22.537Z,816.52
2017-10-06T00:41:23.304Z,816.37
2017-10-06T00:42:23.952Z,816.34
2017-10-06T00:43:24.595Z,816.40
2017-10-06T00:44:25.212Z,816.45
2017-10-06T00:45:25.821Z,816.44
2017-10-06T00:46:26.582Z,816.42
2017-10-06T00:47:27.225Z,816.40
2017-10-06T00:48:27.835Z,816.34
2017-10-06T00:49:28.446Z,816.29
2017-10-06T00:50:29.058Z,816.40
2017-10-06T00:51:29.861Z,816.47
2017-10-06T00:52:30.465Z,816.51
2017-10-06T00:53:31.077Z,816.58
2017-10-06T00:54:31.722Z,816.53
2017-10-06T00:55:32.335Z,816.56
2017-10-06T00:56:33.093Z,816.53
2017-10-06T00:57:33.705Z,816.45
2017-10-06T00:58:34.319Z,816.37
2017-10-06T00:59:34.965Z,816.42
2017-10-06T01:00:35.571Z,816.39
2017-10-06T01:01:36.338Z,816.31
2017-10-06T01:02:36.947Z,816.28
2017-10-06T01:03:37.563Z,816.38
2017-10-06T01:04:38.171Z,816.37
2017-10-06T01:05:38.782Z,816.37
2017-10-06T01:06:39.543Z,816.40
2017-10-06T01:07:40.160Z,816.37
2017-10-06T01:08:40.768Z,816.34
2017-10-06T01:09:41.378Z,816.37
2017-10-06T01:10:41.995Z,816.45
2017-10-06T01:11:42.761Z,816.37
2017-10-06T01:12:43.368Z,816.34
2017-10-06T01:13:44.015Z,816.27
2017-10-06T01:14:44.621Z,816.34
2017-10-06T01:15:45.263Z,816.35
2017-10-06T01:16:46.029Z,816.32
2017-10-06T01:17:46.637Z,816.27
2017-10-06T01:18:47.254Z,816.34
2017-10-06T01:19:47.862Z,816.39
2017-10-06T01:20:48.473Z,816.28
2017-10-06T01:21:49.239Z,816.42
2017-10-06T01:22:49.886Z,816.30
2017-10-06T01:23:50.493Z,816.24
2017-10-06T01:24:51.104Z,816.28
2017-10-06T01:25:51.744Z,816.24
2017-10-06T01:26:52.506Z,816.23
2017-10-06T01:27:53.155Z,816.24
2017-10-06T01:28:53.769Z,816.36
2017-10-06T01:29:54.373Z,816.23
2017-10-06T01:30:54.989Z,816.22
2017-10-06T01:31:55.903Z,816.21
2017-10-06T01:32:56.506Z,816.18
2017-10-06T01:33:57.116Z,816.15
2017-10-06T01:34:57.726Z,816.18
2017-10-06T01:35:58.335Z,816.21
2017-10-06T01:36:59.098Z,816.12
2017-10-06T01:37:59.739Z,816.08
2017-10-06T01:39:00.350Z,816.14
2017-10-06T01:40:00.962Z,816.12
2017-10-06T01:41:01.575Z,816.06
2017-10-06T01:42:02.333Z,816.03
2017-10-06T01:43:02.944Z,816.06
2017-10-06T01:44:03.555Z,816.07
2017-10-06T01:45:04.165Z,816.10
2017-10-06T01:46:04.774Z,816.15
2017-10-06T01:47:05.564Z,816.17
2017-10-06T01:48:06.177Z,816.03
2017-10-06T01:49:06.787Z,816.08
2017-10-06T01:50:07.436Z,816.07
2017-10-06T01:51:08.044Z,816.07
2017-10-06T01:52:08.956Z,816.04
2017-10-06T01:53:09.574Z,816.00
2017-10-06T01:54:10.182Z,815.98
2017-10-06T01:55:10.822Z,816.07
2017-10-06T01:56:11.432Z,816.06
2017-10-06T01:57:12.223Z,816.13
2017-10-06T01:58:12.836Z,816.06
2017-10-06T01:59:13.445Z,816.10
2017-10-06T02:00:14.056Z,816.03
2017-10-06T02:01:14.667Z,816.06
2017-10-06T02:02:15.530Z,816.12
2017-10-06T02:03:16.139Z,816.02
2017-10-06T02:04:16.750Z,816.00
2017-10-06T02:05:17.359Z,816.02
2017-10-06T02:06:18.001Z,815.96
2017-10-06T02:07:18.861Z,815.91
2017-10-06T02:08:19.502Z,815.87
2017-10-06T02:09:20.117Z,815.87
2017-10-06T02:10:20.725Z,815.86
2017-10-06T02:11:21.335Z,815.84
2017-10-06T02:12:22.095Z,815.92
2017-10-06T02:13:22.710Z,815.92
2017-10-06T02:14:23.326Z,815.91
2017-10-06T02:15:23.957Z,815.94
2017-10-06T02:16:24.568Z,815.90
2017-10-06T02:17:25.328Z,815.90
2017-10-06T02:18:25.940Z,815.84
2017-10-06T02:19:26.550Z,815.89
2017-10-06T02:20:27.160Z,815.88
2017-10-06T02:21:27.777Z,815.89
2017-10-06T02:22:28.540Z,815.86
2017-10-06T02:23:29.146Z,815.83
2017-10-06T02:24:29.756Z,815.91
2017-10-06T02:25:30.366Z,815.82
2017-10-06T02:26:30.976Z,815.84
2017-10-06T02:27:31.738Z,815.85
2017-10-06T02:28:32.346Z,815.79
2017-10-06T02:29:32.957Z,815.77
2017-10-06T02:30:33.569Z,815.72
2017-10-06T02:31:34.177Z,815.72
2017-10-06T02:32:34.938Z,815.74
2017-10-06T02:33:35.547Z,815.72
2017-10-06T02:34:36.158Z,815.72
2017-10-06T02:35:36.769Z,815.71
2017-10-06T02:36:37.381Z,815.66
2017-10-06T02:37:38.170Z,815.75
2017-10-06T02:38:38.781Z,815.72
2017-10-06T02:39:39.390Z,815.72
2017-10-06T02:40:40.006Z,815.64
2017-10-06T02:41:40.614Z,815.71
2017-10-06T02:42:41.374Z,815.69
2017-10-06T02:43:41.987Z,815.74
2017-10-06T02:44:42.601Z,815.75
2017-10-06T02:45:43.208Z,815.77
2017-10-06T02:46:43.819Z,815.76
2017-10-06T02:47:44.583Z,815.85
2017-10-06T02:48:45.197Z,815.69
2017-10-06T02:49:45.805Z,815.73
2017-10-06T02:50:46.415Z,815.78
2017-10-06T02:51:47.025Z,815.76
2017-10-06T02:52:47.783Z,815.74
2017-10-06T02:53:48.392Z,815.71
2017-10-06T02:54:49.010Z,815.67
2017-10-06T02:55:49.617Z,815.71
2017-10-06T02:56:50.225Z,815.82
2017-10-06T02:57:50.989Z,815.88
2017-10-06T02:58:51.633Z,815.81
2017-10-06T02:59:52.273Z,815.85
2017-10-06T03:00:52.882Z,815.86
2017-10-06T03:01:53.492Z,815.84
2017-10-06T03:02:54.256Z,815.85
2017-10-06T03:03:54.864Z,815.72
2017-10-06T03:04:55.479Z,815.72
2017-10-06T03:05:56.086Z,815.69
2017-10-06T03:06:56.697Z,815.44
2017-10-06T03:07:57.492Z,815.69
2017-10-06T03:08:58.101Z,815.62
2017-10-06T03:09:58.742Z,815.67
2017-10-06T03:10:59.359Z,815.71
2017-10-06T03:11:59.971Z,815.63
2017-10-06T03:13:00.727Z,815.66
2017-10-06T03:14:01.338Z,815.52
2017-10-06T03:15:01.949Z,815.70
2017-10-06T03:16:02.567Z,815.70
2017-10-06T03:17:03.172Z,815.57
2017-10-06T03:18:03.933Z,815.63
2017-10-06T03:19:04.544Z,815.64
2017-10-06T03:20:05.153Z,815.58
2017-10-06T03:21:05.762Z,815.68
2017-10-06T03:22:06.379Z,815.64
2017-10-06T03:23:07.172Z,815.64
2017-10-06T03:24:07.781Z,815.70
2017-10-06T03:25:08.392Z,815.65
2017-10-06T03:26:09.001Z,815.49
2017-10-06T03:27:09.609Z,815.63
2017-10-06T03:28:10.368Z,815.61
2017-10-06T03:29:10.980Z,815.67
2017-10-06T03:30:11.597Z,815.75
2017-10-06T03:31:12.208Z,815.65
2017-10-06T03:32:12.815Z,815.63
2017-10-06T03:33:13.607Z,815.67
2017-10-06T03:34:14.221Z,815.50
2017-10-06T03:35:14.864Z,815.62
2017-10-06T03:36:15.474Z,815.60
2017-10-06T03:37:16.089Z,815.63
2017-10-06T03:38:16.845Z,815.55
2017-10-06T03:39:17.455Z,815.56
2017-10-06T03:40:18.066Z,815.57
2017-10-06T03:41:18.711Z,815.54
2017-10-06T03:42:19.322Z,815.50
2017-10-06T03:43:20.086Z,815.64
2017-10-06T03:44:20.699Z,815.51
2017-10-06T03:45:21.311Z,815.55
2017-10-06T03:46:21.917Z,815.59
2017-10-06T03:47:22.528Z,815.64
2017-10-06T03:48:23.295Z,815.61
2017-10-06T03:49:23.901Z,815.57
2017-10-06T03:50:24.510Z,815.63
2017-10-06T03:51:25.121Z,815.61
2017-10-06T03:52:25.766Z,815.55
2017-10-06T03:53:26.530Z,815.59
2017-10-06T03:54:27.137Z,815.60
2017-10-06T03:55:27.752Z,815.58
2017-10-06T03:56:28.359Z,815.59
2017-10-06T03:57:28.968Z,815.54
2017-10-06T03:58:29.733Z,815.54
2017-10-06T03:59:30.340Z,815.43
2017-10-06T04:00:30.949Z,815.45
2017-10-06T04:01:31.562Z,815.48
2017-10-06T04:02:32.168Z,815.47
2017-10-06T04:03:32.927Z,815.51
2017-10-06T04:04:33.536Z,815.52
2017-10-06T04:05:34.150Z,815.62
2017-10-06T04:06:34.762Z,815.52
2017-10-06T04:07:35.368Z,815.42
2017-10-06T04:08:36.126Z,815.49
2017-10-06T04:09:36.737Z,815.68
2017-10-06T04:10:37.348Z,815.59
2017-10-06T04:11:37.955Z,815.40
2017-10-06T04:12:38.563Z,815.47
2017-10-06T04:13:39.322Z,815.52
2017-10-06T04:14:39.932Z,815.56
2017-10-06T04:15:40.547Z,815.63
2017-10-06T04:16:41.152Z,815.44
2017-10-06T04:17:41.762Z,815.53
2017-10-06T04:18:42.521Z,815.60
2017-10-06T04:19:43.131Z,815.59
2017-10-06T04:20:43.740Z,815.62
2017-10-06T04:21:44.349Z,815.57
2017-10-06T04:22:44.959Z,815.57
2017-10-06T04:23:45.722Z,815.65
2017-10-06T04:24:46.334Z,815.54
2017-10-06T04:25:46.942Z,815.52
2017-10-06T04:26:47.550Z,815.56
2017-10-06T04:27:48.160Z,815.57
2017-10-06T04:28:48.928Z,815.64
2017-10-06T04:29:49.539Z,815.60
2017-10-06T04:30:50.147Z,815.60
2017-10-06T04:31:50.757Z,815.59
2017-10-06T04:32:51.368Z,815.52
2017-10-06T04:33:52.126Z,815.45
2017-10-06T04:34:52.738Z,815.57
2017-10-06T04:35:53.347Z,815.57
2017-10-06T04:36:53.964Z,815.49
2017-10-06T04:37:54.574Z,815.52
2017-10-06T04:38:55.331Z,815.55
2017-10-06T04:39:55.941Z,815.43
2017-10-06T04:40:56.556Z,815.51
2017-10-06T04:41:57.162Z,815.45
2017-10-06T04:42:57.772Z,815.48
2017-10-06T04:43:58.529Z,815.54
2017-10-06T04:44:59.139Z,815.47
2017-10-06T04:45:59.754Z,815.52
2017-10-06T04:47:00.393Z,815.54
2017-10-06T04:48:01.003Z,815.54
2017-10-06T04:49:01.769Z,815.53
2017-10-06T04:50:02.380Z,815.44
2017-10-06T04:51:02.986Z,815.48
2017-10-06T04:52:03.595Z,815.54
2017-10-06T04:53:04.203Z,815.49
2017-10-06T04:54:04.961Z,815.47
2017-10-06T04:55:05.576Z,815.49
2017-10-06T04:56:06.184Z,815.56
2017-10-06T04:57:06.791Z,815.56
2017-10-06T04:58:07.400Z,815.58
2017-10-06T04:59:08.161Z,815.54
2017-10-06T05:00:08.768Z,815.49
2017-10-06T05:01:09.378Z,815.50
2017-10-06T05:02:09.993Z,815.52
2017-10-06T05:03:10.599Z,815.48
2017-10-06T05:04:11.358Z,815.42
2017-10-06T05:05:12.007Z,815.43
2017-10-06T05:06:12.611Z,815.52
2017-10-06T05:07:13.220Z,815.57
2017-10-06T05:08:13.831Z,815.50
2017-10-06T05:09:14.589Z,815.51
2017-10-06T05:10:15.204Z,815.47
2017-10-06T05:11:15.811Z,815.49
2017-10-06T05:12:16.420Z,815.48
2017-10-06T05:13:17.027Z,815.42
2017-10-06T05:14:17.787Z,815.44
2017-10-06T05:15:18.395Z,815.45
2017-10-06T05:16:19.009Z,815.40
2017-10-06T05:17:19.616Z,815.41
2017-10-06T05:18:20.224Z,815.34
2017-10-06T05:19:20.984Z,815.41
2017-10-06T05:20:21.598Z,815.33
2017-10-06T05:21:22.210Z,815.27
2017-10-06T05:22:22.815Z,815.40
2017-10-06T05:23:23.458Z,815.36
2017-10-06T05:24:24.215Z,815.41
2017-10-06T05:25:24.827Z,815.36
2017-10-06T05:26:25.433Z,815.44
2017-10-06T05:27:26.043Z,815.40
2017-10-06T05:28:26.651Z,815.37
2017-10-06T05:29:27.441Z,815.51
2017-10-06T05:30:28.053Z,815.45
2017-10-06T05:31:28.662Z,815.49
2017-10-06T05:32:29.309Z,815.45
2017-10-06T05:33:29.914Z,815.42
2017-10-06T05:34:30.679Z,815.41
2017-10-06T05:35:31.325Z,815.44
2017-10-06T05:36:31.964Z,815.46
2017-10-06T05:37:32.572Z,815.42
2017-10-06T05:38:33.188Z,815.41
2017-10-06T05:39:33.946Z,815.37
2017-10-06T05:40:34.559Z,815.39
2017-10-06T05:41:35.171Z,815.43
2017-10-06T05:42:35.777Z,815.41
2017-10-06T05:43:36.391Z,815.39
2017-10-06T05:44:37.152Z,815.46
2017-10-06T05:45:37.760Z,815.34
2017-10-06T05:46:38.369Z,815.38
2017-10-06T05:47:38.977Z,815.50
2017-10-06T05:48:39.586Z,815.46
2017-10-06T05:49:40.345Z,815.46
2017-10-06T05:50:40.956Z,815.49
2017-10-06T05:51:41.602Z,815.50
2017-10-06T05:52:42.215Z,815.52
2017-10-06T05:53:42.825Z,815.43
2017-10-06T05:54:43.622Z,815.44
2017-10-06T05:55:44.228Z,815.47
2017-10-06T05:56:44.877Z,815.50
2017-10-06T05:57:45.485Z,815.36
2017-10-06T05:58:46.095Z,815.43
2017-10-06T05:59:46.887Z,815.42
2017-10-06T06:00:47.497Z,815.33
2017-10-06T06:01:48.108Z,815.35
2017-10-06T06:02:48.724Z,815.38
2017-10-06T06:03:49.331Z,815.36
2017-10-06T06:04:50.097Z,815.40
2017-10-06T06:05:50.704Z,815.41
2017-10-06T06:06:51.346Z,815.41
2017-10-06T06:07:51.963Z,815.41
2017-10-06T06:08:52.575Z,815.46
2017-10-06T06:09:53.337Z,815.47
2017-10-06T06:10:53.945Z,815.51
2017-10-06T06:11:54.555Z,815.60
2017-10-06T06:12:55.165Z,815.49
2017-10-06T06:13:55.775Z,815.58
2017-10-06T06:14:56.564Z,815.54
2017-10-06T06:15:57.176Z,815.62
2017-10-06T06:16:57.818Z,815.54
2017-10-06T06:17:58.433Z,815.51
2017-10-06T06:18:59.041Z,815.57
2017-10-06T06:19:59.803Z,815.59
2017-10-06T06:21:00.411Z,815.59
2017-10-06T06:22:01.027Z,815.59
2017-10-06T06:23:01.634Z,815.61
2017-10-06T06:24:02.254Z,815.60
2017-10-06T06:25:03.005Z,815.54
2017-10-06T06:26:03.615Z,815.60
2017-10-06T06:27:04.225Z,815.66
2017-10-06T06:28:04.833Z,815.65
2017-10-06T06:29:05.448Z,815.66
2017-10-06T06:30:06.207Z,815.75
2017-10-06T06:31:06.817Z,815.69
2017-10-06T06:32:07.427Z,815.75
2017-10-06T06:33:08.035Z,815.67
2017-10-06T06:34:08.646Z,815.73
2017-10-06T06:35:09.438Z,815.69
2017-10-06T06:36:10.079Z,815.66
2017-10-06T06:37:10.689Z,815.64
2017-10-06T06:38:11.298Z,815.64
2017-10-06T06:39:11.944Z,815.63
2017-10-06T06:40:12.702Z,815.68
2017-10-06T06:41:13.311Z,815.73
2017-10-06T06:42:13.921Z,815.66
2017-10-06T06:43:14.530Z,815.69
2017-10-06T06:44:15.139Z,815.71
2017-10-06T06:45:15.901Z,815.67
2017-10-06T06:46:16.517Z,815.65
2017-10-06T06:47:17.123Z,815.67
2017-10-06T06:48:17.732Z,815.65
2017-10-06T06:49:18.342Z,815.68
2017-10-06T06:50:19.107Z,815.67
2017-10-06T06:51:19.749Z,815.72
2017-10-06T06:52:20.358Z,815.75
2017-10-06T06:53:20.969Z,815.77
2017-10-06T06:54:21.581Z,815.76
2017-10-06T06:55:22.376Z,815.77
2017-10-06T06:56:22.990Z,815.71
2017-10-06T06:57:23.596Z,815.72
2017-10-06T06:58:24.210Z,815.72
2017-10-06T06:59:24.816Z,815.70
2017-10-06T07:00:25.578Z,815.72
2017-10-06T07:01:26.187Z,815.73
2017-10-06T07:02:26.797Z,815.69
2017-10-06T07:03:27.406Z,815.71
2017-10-06T07:04:28.018Z,815.72
2017-10-06T07:05:28.817Z,815.79
2017-10-06T07:06:29.425Z,815.86
2017-10-06T07:07:30.033Z,815.86
2017-10-06T07:08:30.651Z,815.81
2017-10-06T07:09:31.255Z,815.81
2017-10-06T07:10:32.016Z,815.88
2017-10-06T07:11:32.625Z,815.78
2017-10-06T07:12:33.236Z,815.91
2017-10-06T07:13:33.849Z,815.85
2017-10-06T07:14:34.464Z,815.87
2017-10-06T07:15:35.222Z,815.94
2017-10-06T07:16:35.839Z,815.95
2017-10-06T07:17:36.445Z,815.95
2017-10-06T07:18:37.067Z,815.90
2017-10-06T07:19:37.667Z,815.90
2017-10-06T07:20:38.462Z,815.93
2017-10-06T07:21:39.072Z,815.95
2017-10-06T07:22:39.680Z,815.93
2017-10-06T07:23:40.290Z,815.99
2017-10-06T07:24:40.902Z,815.97
2017-10-06T07:25:41.670Z,816.00
2017-10-06T07:26:42.272Z,815.96
2017-10-06T07:27:42.888Z,815.93
2017-10-06T07:28:43.494Z,815.95
2017-10-06T07:29:44.109Z,816.00
2017-10-06T07:30:44.873Z,815.93
2017-10-06T07:31:45.482Z,816.02
2017-10-06T07:32:46.091Z,815.96
2017-10-06T07:33:46.703Z,816.02
2017-10-06T07:34:47.314Z,815.99
2017-10-06T07:35:48.075Z,815.98
2017-10-06T07:36:48.693Z,816.03
2017-10-06T07:37:49.308Z,816.01
2017-10-06T07:38:49.915Z,816.05
2017-10-06T07:39:50.522Z,816.05
2017-10-06T07:40:51.280Z,816.11
2017-10-06T07:41:51.896Z,816.12
2017-10-06T07:42:52.542Z,816.13
2017-10-06T07:43:53.150Z,816.14
2017-10-06T07:44:53.765Z,816.13
2017-10-06T07:45:54.527Z,816.18
2017-10-06T07:46:55.136Z,816.15
2017-10-06T07:47:55.745Z,816.16
2017-10-06T07:48:56.360Z,816.12
2017-10-06T07:49:56.967Z,816.16
2017-10-06T07:50:57.729Z,816.19
2017-10-06T07:51:58.343Z,816.15
2017-10-06T07:52:58.948Z,816.18
2017-10-06T07:53:59.558Z,816.20
2017-10-06T07:55:00.199Z,816.19
2017-10-06T07:56:00.959Z,816.21
2017-10-06T07:57:01.574Z,816.22
2017-10-06T07:58:02.186Z,816.20
2017-10-06T07:59:02.790Z,816.22
2017-10-06T08:00:03.398Z,816.19
2017-10-06T08:01:04.162Z,816.25
2017-10-06T08:02:04.770Z,816.25
2017-10-06T08:03:05.379Z,816.21
2017-10-06T08:04:06.021Z,816.28
2017-10-06T08:05:06.666Z,816.25
2017-10-06T08:06:07.429Z,816.21
2017-10-06T08:07:08.043Z,816.18
2017-10-06T08:08:08.656Z,816.19
2017-10-06T08:09:09.262Z,816.18
2017-10-06T08:10:09.873Z,816.12
2017-10-06T08:11:10.635Z,816.14
2017-10-06T08:12:11.280Z,816.17
2017-10-06T08:13:11.893Z,816.16
2017-10-06T08:14:12.506Z,816.17
2017-10-06T08:15:13.120Z,816.16
2017-10-06T08:16:13.880Z,816.19
2017-10-06T08:17:14.489Z,816.17
2017-10-06T08:18:15.101Z,816.13
2017-10-06T08:19:15.719Z,816.10
2017-10-06T08:20:16.330Z,816.05
2017-10-06T08:21:17.090Z,816.05
2017-10-06T08:22:17.701Z,816.07
2017-10-06T08:23:18.316Z,816.09
2017-10-06T08:24:18.931Z,816.08
2017-10-06T08:25:19.540Z,816.09
2017-10-06T08:26:20.452Z,816.14
2017-10-06T08:27:21.095Z,816.14
2017-10-06T08:28:21.741Z,816.14
2017-10-06T08:29:22.350Z,816.14
2017-10-06T08:30:22.962Z,816.23
2017-10-06T08:31:23.726Z,816.16
2017-10-06T08:32:24.339Z,816.20
2017-10-06T08:33:24.949Z,816.16
2017-10-06T08:34:25.558Z,816.12
2017-10-06T08:35:26.177Z,816.19
2017-10-06T08:36:26.932Z,816.13
2017-10-06T08:37:27.539Z,816.13
2017-10-06T08:38:28.154Z,816.12
2017-10-06T08:39:28.765Z,816.15
2017-10-06T08:40:29.373Z,816.16
2017-10-06T08:41:30.135Z,816.13
2017-10-06T08:42:30.757Z,816.16
2017-10-06T08:43:31.395Z,816.18
2017-10-06T08:44:32.006Z,816.17
2017-10-06T08:45:32.622Z,816.18
2017-10-06T08:46:33.415Z,816.26
2017-10-06T08:47:34.027Z,816.19
2017-10-06T08:48:34.644Z,816.27
2017-10-06T08:49:35.253Z,816.25
2017-10-06T08:50:35.867Z,816.24
2017-10-06T08:51:36.629Z,816.22
2017-10-06T08:52:37.251Z,816.28
2017-10-06T08:53:37.859Z,816.30
2017-10-06T08:54:38.478Z,816.21
2017-10-06T08:55:39.127Z,816.22
2017-10-06T08:56:39.886Z,816.17
2017-10-06T08:57:40.500Z,816.18
2017-10-06T08:58:41.110Z,816.20
2017-10-06T08:59:41.722Z,816.22
2017-10-06T09:00:42.334Z,816.21
2017-10-06T09:01:43.129Z,816.20
2017-10-06T09:02:43.742Z,816.25
2017-10-06T09:03:44.355Z,816.25
2017-10-06T09:04:44.967Z,816.23
2017-10-06T09:05:45.580Z,816.16
2017-10-06T09:06:46.349Z,816.21
2017-10-06T09:07:46.966Z,816.18
2017-10-06T09:08:47.586Z,816.15
2017-10-06T09:09:48.196Z,816.19
2017-10-06T09:10:48.807Z,816.30
2017-10-06T09:11:49.574Z,816.26
2017-10-06T09:12:50.185Z,816.24
2017-10-06T09:13:50.798Z,816.26
2017-10-06T09:14:51.417Z,816.29
2017-10-06T09:15:52.028Z,816.25
2017-10-06T09:16:52.790Z,816.24
2017-10-06T09:17:53.411Z,816.29
2017-10-06T09:18:54.027Z,816.27
2017-10-06T09:19:54.636Z,816.32
2017-10-06T09:20:55.254Z,816.28
2017-10-06T09:21:56.018Z,816.35
2017-10-06T09:22:56.629Z,816.35
2017-10-06T09:23:57.247Z,816.27
2017-10-06T09:24:57.864Z,816.32
2017-10-06T09:25:58.473Z,816.25
2017-10-06T09:26:59.238Z,816.34
2017-10-06T09:27:59.855Z,816.28
2017-10-06T09:29:00.500Z,816.24
2017-10-06T09:30:01.120Z,816.29
2017-10-06T09:31:01.731Z,816.37
2017-10-06T09:32:02.497Z,816.31
2017-10-06T09:33:03.108Z,816.35
2017-10-06T09:34:03.726Z,816.31
2017-10-06T09:35:04.338Z,816.29
2017-10-06T09:36:04.949Z,816.38
2017-10-06T09:37:05.712Z,816.31
2017-10-06T09:38:06.333Z,816.29
2017-10-06T09:39:06.978Z,816.30
2017-10-06T09:40:07.591Z,816.29
2017-10-06T09:41:08.210Z,816.31
2017-10-06T09:42:08.970Z,816.31
2017-10-06T09:43:09.582Z,816.23
2017-10-06T09:44:10.198Z,816.22
2017-10-06T09:45:10.808Z,816.20
2017-10-06T09:46:11.422Z,816.17
2017-10-06T09:47:12.186Z,816.23
2017-10-06T09:48:12.806Z,816.17
2017-10-06T09:49:13.424Z,816.25
2017-10-06T09:50:14.036Z,816.23
2017-10-06T09:51:14.649Z,816.29
2017-10-06T09:52:15.418Z,816.14
2017-10-06T09:53:16.030Z,816.23
2017-10-06T09:54:16.641Z,816.27
2017-10-06T09:55:17.261Z,816.14
2017-10-06T09:56:17.872Z,816.26
2017-10-06T09:57:18.669Z,816.25
2017-10-06T09:58:19.284Z,816.28
2017-10-06T09:59:19.897Z,816.30
2017-10-06T10:00:20.517Z,816.20
2017-10-06T10:01:21.160Z,816.25
2017-10-06T10:02:21.929Z,816.22
2017-10-06T10:03:22.547Z,816.21
2017-10-06T10:04:23.194Z,816.27
2017-10-06T10:05:23.807Z,816.26
2017-10-06T10:06:24.427Z,816.22
2017-10-06T10:07:25.190Z,816.20
2017-10-06T10:08:25.804Z,816.27
2017-10-06T10:09:26.423Z,816.27
2017-10-06T10:10:27.043Z,816.26
2017-10-06T10:11:27.657Z,816.27
2017-10-06T10:12:28.424Z,816.31
2017-10-06T10:13:29.038Z,816.28
2017-10-06T10:14:29.653Z,816.32
2017-10-06T10:15:30.269Z,816.30
2017-10-06T10:16:30.889Z,816.33
2017-10-06T10:17:31.655Z,816.26
2017-10-06T10:18:32.274Z,816.36
2017-10-06T10:19:32.890Z,816.38
2017-10-06T10:20:33.513Z,816.38
2017-10-06T10:21:34.131Z,816.42
2017-10-06T10:22:34.906Z,816.38
2017-10-06T10:23:35.513Z,816.39
2017-10-06T10:24:36.131Z,816.33
2017-10-06T10:25:36.749Z,816.34
2017-10-06T10:26:37.370Z,816.39
2017-10-06T10:27:38.142Z,816.38
2017-10-06T10:28:38.758Z,816.46
2017-10-06T10:29:39.372Z,816.45
2017-10-06T10:30:39.989Z,816.34
2017-10-06T10:31:40.611Z,816.37
2017-10-06T10:32:41.382Z,816.28
2017-10-06T10:33:41.995Z,816.43
2017-10-06T10:34:42.642Z,816.36
2017-10-06T10:35:43.264Z,816.39
2017-10-06T10:36:43.912Z,816.36
2017-10-06T10:37:44.680Z,816.44
2017-10-06T10:38:45.298Z,816.40
2017-10-06T10:39:45.915Z,816.40
2017-10-06T10:40:46.531Z,816.44
2017-10-06T10:41:47.147Z,816.49
2017-10-06T10:42:47.915Z,816.43
2017-10-06T10:43:48.532Z,816.45
2017-10-06T10:44:49.149Z,816.43
2017-10-06T10:45:49.766Z,816.47
2017-10-06T10:46:50.383Z,816.51
2017-10-06T10:47:51.150Z,816.42
2017-10-06T10:48:51.771Z,816.49
2017-10-06T10:49:52.387Z,816.50
2017-10-06T10:50:53.004Z,816.52
2017-10-06T10:51:53.619Z,816.48
2017-10-06T10:52:54.422Z,816.44
2017-10-06T10:53:55.072Z,816.45
2017-10-06T10:54:55.688Z,816.43
2017-10-06T10:55:56.310Z,816.44
2017-10-06T10:56:56.925Z,816.44
2017-10-06T10:57:57.693Z,816.42
2017-10-06T10:58:58.310Z,816.46
2017-10-06T10:59:58.933Z,816.45
2017-10-06T11:00:59.546Z,816.41
2017-10-06T11:02:00.164Z,816.45
2017-10-06T11:03:00.930Z,816.41
2017-10-06T11:04:01.548Z,816.40
2017-10-06T11:05:02.167Z,816.33
2017-10-06T11:06:02.785Z,816.36
2017-10-06T11:07:03.408Z,816.36
2017-10-06T11:08:04.174Z,816.30
2017-10-06T11:09:04.793Z,816.37
2017-10-06T11:10:05.412Z,816.36
2017-10-06T11:11:06.027Z,816.35
2017-10-06T11:12:06.646Z,816.36
2017-10-06T11:13:07.414Z,816.40
2017-10-06T11:14:08.034Z,816.40
2017-10-06T11:15:08.683Z,816.38
2017-10-06T11:16:09.301Z,816.32
2017-10-06T11:17:09.919Z,816.36
2017-10-06T11:18:10.689Z,816.28
2017-10-06T11:19:11.305Z,816.28
2017-10-06T11:20:11.922Z,816.30
2017-10-06T11:21:12.544Z,816.29
2017-10-06T11:22:13.164Z,816.36
2017-10-06T11:23:13.970Z,816.30
2017-10-06T11:24:14.585Z,816.34
2017-10-06T11:25:15.202Z,816.28
2017-10-06T11:26:15.821Z,816.19
2017-10-06T11:27:16.438Z,816.17
2017-10-06T11:28:17.214Z,816.29
2017-10-06T11:29:17.835Z,816.26
2017-10-06T11:30:18.483Z,816.20
2017-10-06T11:31:19.099Z,816.33
2017-10-06T11:32:19.716Z,816.27
2017-10-06T11:33:20.490Z,816.20
2017-10-06T11:34:21.110Z,816.28
2017-10-06T11:35:21.725Z,816.24
2017-10-06T11:36:22.348Z,816.20
2017-10-06T11:37:22.963Z,816.24
2017-10-06T11:38:23.735Z,816.24
2017-10-06T11:39:24.355Z,816.21
2017-10-06T11:40:24.970Z,816.22
2017-10-06T11:41:25.588Z,816.22
2017-10-06T11:42:26.206Z,816.10
2017-10-06T11:43:26.980Z,816.12
2017-10-06T11:44:27.597Z,816.29
2017-10-06T11:45:28.213Z,816.19
2017-10-06T11:46:28.869Z,816.29
2017-10-06T11:47:29.485Z,816.15
2017-10-06T11:48:30.251Z,816.12
2017-10-06T11:49:30.869Z,816.09
2017-10-06T11:50:31.492Z,816.10
2017-10-06T11:51:32.108Z,816.12
2017-10-06T11:52:32.724Z,816.15
2017-10-06T11:53:33.499Z,816.16
2017-10-06T11:54:34.114Z,816.07
2017-10-06T11:55:34.731Z,816.06
2017-10-06T11:56:35.347Z,816.10
2017-10-06T11:57:35.968Z,816.24
2017-10-06T11:58:36.764Z,816.15
2017-10-06T11:59:37.387Z,816.12
2017-10-06T12:00:38.008Z,816.21
2017-10-06T12:01:38.627Z,816.20
2017-10-06T12:02:39.249Z,816.18
2017-10-06T12:03:40.013Z,816.21
2017-10-06T12:04:40.635Z,816.10
2017-10-06T12:05:41.250Z,816.04
2017-10-06T12:06:41.870Z,816.19
2017-10-06T12:07:42.489Z,816.14
2017-10-06T12:08:43.413Z,816.09
2017-10-06T12:09:44.028Z,816.12
2017-10-06T12:10:44.648Z,816.24
2017-10-06T12:11:45.272Z,816.20
2017-10-06T12:12:45.892Z,816.26
2017-10-06T12:13:46.692Z,816.23
2017-10-06T12:14:47.310Z,816.22
2017-10-06T12:15:47.927Z,816.22
2017-10-06T12:16:48.547Z,816.28
2017-10-06T12:17:49.163Z,816.31
2017-10-06T12:18:49.938Z,816.25
2017-10-06T12:19:50.550Z,816.21
2017-10-06T12:20:51.168Z,816.15
2017-10-06T12:21:51.785Z,816.21
2017-10-06T12:22:52.409Z,816.20
2017-10-06T12:23:53.278Z,816.26
2017-10-06T12:24:53.898Z,816.27
2017-10-06T12:25:54.517Z,816.38
2017-10-06T12:26:55.167Z,816.31
2017-10-06T12:27:55.784Z,816.31
2017-10-06T12:28:56.653Z,816.22
2017-10-06T12:29:57.274Z,816.29
2017-10-06T12:30:57.893Z,816.37
2017-10-06T12:31:58.505Z,816.23
2017-10-06T12:32:59.121Z,816.31
2017-10-06T12:33:59.900Z,816.34
2017-10-06T12:35:00.510Z,816.32
2017-10-06T12:36:01.165Z,816.31
2017-10-06T12:37:01.812Z,816.36